sensor_id;sensor_type;location;lat;lon;timestamp;pressure;altitude;pressure_sealevel;temperature;humidity
72086;BME280;64750;52.134;5.424;2022-12-08T00:00:52;101262.69;;;6.36;77.79
72086;BME280;64750;52.134;5.424;2022-12-08T00:03:19;101259.13;;;6.37;77.78
72086;BME280;64750;52.134;5.424;2022-12-08T00:05:48;101254.72;;;6.39;77.56
72086;BME280;64750;52.134;5.424;2022-12-08T00:08:34;101248.69;;;6.37;77.95
72086;BME280;64750;52.134;5.424;2022-12-08T00:11:19;101246.09;;;6.37;77.50
72086;BME280;64750;52.134;5.424;2022-12-08T00:13:45;101248.69;;;6.37;77.56
72086;BME280;64750;52.134;5.424;2022-12-08T00:16:12;101239.19;;;6.36;77.82
72086;BME280;64750;52.134;5.424;2022-12-08T00:18:39;101230.66;;;6.31;77.85
72086;BME280;64750;52.134;5.424;2022-12-08T00:21:05;101229.78;;;6.30;77.67
72086;BME280;64750;52.134;5.424;2022-12-08T00:23:32;101238.53;;;6.29;77.91
72086;BME280;64750;52.134;5.424;2022-12-08T00:26:03;101243.75;;;6.29;77.73
72086;BME280;64750;52.134;5.424;2022-12-08T00:28:30;101238.66;;;6.26;77.62
72086;BME280;64750;52.134;5.424;2022-12-08T00:30:57;101230.81;;;6.26;77.81
72086;BME280;64750;52.134;5.424;2022-12-08T00:33:23;101221.22;;;6.27;77.89
72086;BME280;64750;52.134;5.424;2022-12-08T00:35:53;101222.94;;;6.28;77.44
72086;BME280;64750;52.134;5.424;2022-12-08T00:38:20;101220.31;;;6.28;77.91
72086;BME280;64750;52.134;5.424;2022-12-08T00:40:49;101216.00;;;6.27;77.96
72086;BME280;64750;52.134;5.424;2022-12-08T00:43:18;101215.09;;;6.28;77.86
72086;BME280;64750;52.134;5.424;2022-12-08T00:45:44;101210.75;;;6.28;78.08
72086;BME280;64750;52.134;5.424;2022-12-08T00:48:11;101202.84;;;6.30;77.92
72086;BME280;64750;52.134;5.424;2022-12-08T00:50:37;101195.94;;;6.29;77.88
72086;BME280;64750;52.134;5.424;2022-12-08T00:53:04;101200.31;;;6.28;77.98
72086;BME280;64750;52.134;5.424;2022-12-08T00:55:31;101201.16;;;6.29;77.90
72086;BME280;64750;52.134;5.424;2022-12-08T00:57:57;101190.69;;;6.29;77.92
72086;BME280;64750;52.134;5.424;2022-12-08T01:00:24;101187.19;;;6.30;77.99
72086;BME280;64750;52.134;5.424;2022-12-08T01:02:51;101186.38;;;6.28;77.90
72086;BME280;64750;52.134;5.424;2022-12-08T01:05:18;101189.88;;;6.28;78.14
72086;BME280;64750;52.134;5.424;2022-12-08T01:07:44;101180.31;;;6.27;78.04
72086;BME280;64750;52.134;5.424;2022-12-08T01:10:11;101176.84;;;6.27;77.91
72086;BME280;64750;52.134;5.424;2022-12-08T01:12:37;101174.19;;;6.28;78.01
72086;BME280;64750;52.134;5.424;2022-12-08T01:15:06;101181.09;;;6.29;78.03
72086;BME280;64750;52.134;5.424;2022-12-08T01:17:36;101184.59;;;6.30;78.10
72086;BME280;64750;52.134;5.424;2022-12-08T01:20:04;101181.97;;;6.30;77.89
72086;BME280;64750;52.134;5.424;2022-12-08T01:22:33;101184.69;;;6.27;77.83
72086;BME280;64750;52.134;5.424;2022-12-08T01:25:01;101184.69;;;6.27;78.24
72086;BME280;64750;52.134;5.424;2022-12-08T01:27:27;101174.19;;;6.28;77.77
72086;BME280;64750;52.134;5.424;2022-12-08T01:29:54;101169.81;;;6.29;78.00
72086;BME280;64750;52.134;5.424;2022-12-08T01:32:20;101169.81;;;6.29;78.03
72086;BME280;64750;52.134;5.424;2022-12-08T01:34:47;101168.13;;;6.28;77.89
72086;BME280;64750;52.134;5.424;2022-12-08T01:37:13;101168.13;;;6.28;77.66
72086;BME280;64750;52.134;5.424;2022-12-08T01:39:40;101178.69;;;6.24;77.90
72086;BME280;64750;52.134;5.424;2022-12-08T01:42:18;101187.53;;;6.20;77.79
72086;BME280;64750;52.134;5.424;2022-12-08T01:44:52;101187.53;;;6.20;78.02
72086;BME280;64750;52.134;5.424;2022-12-08T01:47:19;101183.31;;;6.16;78.19
72086;BME280;64750;52.134;5.424;2022-12-08T01:49:46;101182.31;;;6.20;78.08
72086;BME280;64750;52.134;5.424;2022-12-08T01:52:18;101177.81;;;6.24;77.92
72086;BME280;64750;52.134;5.424;2022-12-08T01:54:51;101172.66;;;6.22;78.12
72086;BME280;64750;52.134;5.424;2022-12-08T01:57:40;101165.72;;;6.21;78.25
72086;BME280;64750;52.134;5.424;2022-12-08T02:00:09;101171.75;;;6.23;77.97
72086;BME280;64750;52.134;5.424;2022-12-08T02:02:51;101171.75;;;6.23;78.16
72086;BME280;64750;52.134;5.424;2022-12-08T02:05:21;101169.94;;;6.26;77.91
72086;BME280;64750;52.134;5.424;2022-12-08T02:07:48;101169.00;;;6.27;78.03
72086;BME280;64750;52.134;5.424;2022-12-08T02:10:20;101158.69;;;6.23;78.37
72086;BME280;64750;52.134;5.424;2022-12-08T02:12:48;101163.00;;;6.24;78.20
72086;BME280;64750;52.134;5.424;2022-12-08T02:15:16;101155.25;;;6.23;77.89
72086;BME280;64750;52.134;5.424;2022-12-08T02:17:52;101161.31;;;6.23;78.10
72086;BME280;64750;52.134;5.424;2022-12-08T02:20:34;101144.69;;;6.26;78.11
72086;BME280;64750;52.134;5.424;2022-12-08T02:23:09;101142.91;;;6.27;78.12
72086;BME280;64750;52.134;5.424;2022-12-08T02:34:30;101125.56;;;6.26;77.83
72086;BME280;64750;52.134;5.424;2022-12-08T02:37:08;101122.09;;;6.25;78.03
72086;BME280;64750;52.134;5.424;2022-12-08T02:40:32;101126.34;;;6.28;78.10
72086;BME280;64750;52.134;5.424;2022-12-08T02:43:08;101126.34;;;6.28;78.34
72086;BME280;64750;52.134;5.424;2022-12-08T02:45:44;101125.56;;;6.26;78.07
72086;BME280;64750;52.134;5.424;2022-12-08T02:48:13;101118.50;;;6.28;77.99
72086;BME280;64750;52.134;5.424;2022-12-08T02:50:39;101122.91;;;6.27;78.14
72086;BME280;64750;52.134;5.424;2022-12-08T02:53:06;101108.13;;;6.26;78.38
72086;BME280;64750;52.134;5.424;2022-12-08T02:56:01;101106.38;;;6.27;78.17
72086;BME280;64750;52.134;5.424;2022-12-08T03:01:11;101102.19;;;6.22;78.19
72086;BME280;64750;52.134;5.424;2022-12-08T03:03:53;101093.44;;;6.23;78.23
72086;BME280;64750;52.134;5.424;2022-12-08T03:09:29;101084.72;;;6.24;78.13
72086;BME280;64750;52.134;5.424;2022-12-08T03:14:36;101090.78;;;6.25;78.17
72086;BME280;64750;52.134;5.424;2022-12-08T03:17:04;101092.59;;;6.23;78.13
72086;BME280;64750;52.134;5.424;2022-12-08T03:19:34;101090.97;;;6.20;78.11
72086;BME280;64750;52.134;5.424;2022-12-08T03:22:04;101090.25;;;6.15;77.96
72086;BME280;64750;52.134;5.424;2022-12-08T03:24:38;101092.19;;;6.10;77.82
72086;BME280;64750;52.134;5.424;2022-12-08T03:27:14;101090.59;;;6.06;77.65
72086;BME280;64750;52.134;5.424;2022-12-08T03:29:46;101088.00;;;6.06;78.14
72086;BME280;64750;52.134;5.424;2022-12-08T03:35:08;101080.97;;;6.08;78.42
72086;BME280;64750;52.134;5.424;2022-12-08T03:37:37;101076.53;;;6.10;78.37
72086;BME280;64750;52.134;5.424;2022-12-08T03:40:07;101072.25;;;6.09;78.37
72086;BME280;64750;52.134;5.424;2022-12-08T03:42:34;101066.22;;;6.07;77.95
72086;BME280;64750;52.134;5.424;2022-12-08T03:45:00;101052.34;;;6.06;78.42
72086;BME280;64750;52.134;5.424;2022-12-08T03:47:27;101053.09;;;6.08;78.36
72086;BME280;64750;52.134;5.424;2022-12-08T03:49:53;101052.22;;;6.10;78.42
72086;BME280;64750;52.134;5.424;2022-12-08T03:52:20;101049.59;;;6.10;78.29
72086;BME280;64750;52.134;5.424;2022-12-08T03:54:46;101050.44;;;6.10;78.22
72086;BME280;64750;52.134;5.424;2022-12-08T03:57:13;101053.84;;;6.12;78.45
72086;BME280;64750;52.134;5.424;2022-12-08T03:59:40;101046.03;;;6.12;78.48
72086;BME280;64750;52.134;5.424;2022-12-08T04:02:06;101050.34;;;6.13;78.25
72086;BME280;64750;52.134;5.424;2022-12-08T04:04:33;101053.97;;;6.09;78.14
72086;BME280;64750;52.134;5.424;2022-12-08T04:07:00;101052.44;;;6.03;78.18
72086;BME280;64750;52.134;5.424;2022-12-08T04:09:26;101050.69;;;6.04;78.40
72086;BME280;64750;52.134;5.424;2022-12-08T04:11:53;101053.25;;;6.05;78.35
72086;BME280;64750;52.134;5.424;2022-12-08T04:14:19;101047.13;;;6.06;78.16
72086;BME280;64750;52.134;5.424;2022-12-08T04:16:46;101038.41;;;6.06;78.36
72086;BME280;64750;52.134;5.424;2022-12-08T04:19:12;101044.50;;;6.06;78.35
72086;BME280;64750;52.134;5.424;2022-12-08T04:21:40;101040.94;;;6.09;78.34
72086;BME280;64750;52.134;5.424;2022-12-08T04:24:09;101043.41;;;6.12;78.43
72086;BME280;64750;52.134;5.424;2022-12-08T04:26:36;101032.91;;;6.14;78.48
72086;BME280;64750;52.134;5.424;2022-12-08T04:29:02;101033.78;;;6.14;78.64
72086;BME280;64750;52.134;5.424;2022-12-08T04:31:29;101038.06;;;6.15;78.12
72086;BME280;64750;52.134;5.424;2022-12-08T04:33:55;101030.38;;;6.12;78.24
72086;BME280;64750;52.134;5.424;2022-12-08T04:36:25;101031.25;;;6.11;78.30
72086;BME280;64750;52.134;5.424;2022-12-08T04:38:52;101026.84;;;6.13;78.50
72086;BME280;64750;52.134;5.424;2022-12-08T04:41:18;101028.56;;;6.14;78.55
72086;BME280;64750;52.134;5.424;2022-12-08T04:43:45;101016.28;;;6.16;78.44
72086;BME280;64750;52.134;5.424;2022-12-08T04:46:11;101014.41;;;6.20;78.59
72086;BME280;64750;52.134;5.424;2022-12-08T04:48:38;101014.41;;;6.20;78.41
72086;BME280;64750;52.134;5.424;2022-12-08T04:51:05;101018.78;;;6.19;78.37
72086;BME280;64750;52.134;5.424;2022-12-08T04:53:32;101022.31;;;6.18;78.22
72086;BME280;64750;52.134;5.424;2022-12-08T04:55:58;101023.19;;;6.17;78.20
72086;BME280;64750;52.134;5.424;2022-12-08T04:58:25;101010.16;;;6.17;78.64
72086;BME280;64750;52.134;5.424;2022-12-08T05:00:51;101011.88;;;6.18;78.35
72086;BME280;64750;52.134;5.424;2022-12-08T05:03:18;101013.56;;;6.19;78.41
72086;BME280;64750;52.134;5.424;2022-12-08T05:05:53;101011.88;;;6.18;78.05
72086;BME280;64750;52.134;5.424;2022-12-08T05:08:19;101018.88;;;6.16;78.28
72086;BME280;64750;52.134;5.424;2022-12-08T05:10:46;101022.66;;;6.09;78.08
72086;BME280;64750;52.134;5.424;2022-12-08T05:13:12;101022.75;;;6.06;78.24
72086;BME280;64750;52.134;5.424;2022-12-08T05:15:39;101022.69;;;6.07;77.89
72086;BME280;64750;52.134;5.424;2022-12-08T05:18:05;101021.19;;;6.02;78.32
72086;BME280;64750;52.134;5.424;2022-12-08T05:20:33;101020.38;;;6.00;78.36
72086;BME280;64750;52.134;5.424;2022-12-08T05:23:00;101007.34;;;6.00;78.28
72086;BME280;64750;52.134;5.424;2022-12-08T05:25:26;101017.69;;;6.03;78.54
72086;BME280;64750;52.134;5.424;2022-12-08T05:27:53;101016.09;;;5.99;78.37
72086;BME280;64750;52.134;5.424;2022-12-08T05:30:40;101014.59;;;5.91;78.01
72086;BME280;64750;52.134;5.424;2022-12-08T05:33:06;101022.41;;;5.91;78.12
72086;BME280;64750;52.134;5.424;2022-12-08T05:35:33;101016.28;;;5.93;78.23
72086;BME280;64750;52.134;5.424;2022-12-08T05:37:59;101018.91;;;5.93;77.97
72086;BME280;64750;52.134;5.424;2022-12-08T05:40:26;101009.50;;;5.88;78.55
72086;BME280;64750;52.134;5.424;2022-12-08T05:42:52;101011.06;;;5.93;78.72
72086;BME280;64750;52.134;5.424;2022-12-08T05:45:19;101005.78;;;5.94;78.28
72086;BME280;64750;52.134;5.424;2022-12-08T05:47:45;101003.31;;;5.91;77.91
72086;BME280;64750;52.134;5.424;2022-12-08T05:50:12;100999.16;;;5.85;78.67
72086;BME280;64750;52.134;5.424;2022-12-08T05:52:39;101008.56;;;5.89;78.33
72086;BME280;64750;52.134;5.424;2022-12-08T05:55:05;100998.94;;;5.91;78.89
72086;BME280;64750;52.134;5.424;2022-12-08T05:57:32;100995.22;;;5.99;78.73
72086;BME280;64750;52.134;5.424;2022-12-08T05:59:58;101009.03;;;6.01;78.76
72086;BME280;64750;52.134;5.424;2022-12-08T06:02:25;100997.63;;;6.03;78.81
72086;BME280;64750;52.134;5.424;2022-12-08T06:04:52;100993.22;;;6.05;78.85
72086;BME280;64750;52.134;5.424;2022-12-08T06:07:19;100996.59;;;6.07;78.58
72086;BME280;64750;52.134;5.424;2022-12-08T06:09:45;100995.69;;;6.08;78.85
72086;BME280;64750;52.134;5.424;2022-12-08T06:12:12;100994.72;;;6.11;79.15
72086;BME280;64750;52.134;5.424;2022-12-08T06:14:39;100991.09;;;6.15;78.94
72086;BME280;64750;52.134;5.424;2022-12-08T06:17:05;100989.28;;;6.17;78.84
72086;BME280;64750;52.134;5.424;2022-12-08T06:19:35;100992.69;;;6.19;78.97
72086;BME280;64750;52.134;5.424;2022-12-08T06:22:02;100985.63;;;6.21;78.99
72086;BME280;64750;52.134;5.424;2022-12-08T06:24:28;100991.59;;;6.25;79.17
72086;BME280;64750;52.134;5.424;2022-12-08T06:26:55;100986.38;;;6.25;78.98
72086;BME280;64750;52.134;5.424;2022-12-08T06:29:24;100985.28;;;6.31;79.22
72086;BME280;64750;52.134;5.424;2022-12-08T06:31:51;100984.34;;;6.32;78.72
72086;BME280;64750;52.134;5.424;2022-12-08T06:34:18;100990.38;;;6.34;78.90
72086;BME280;64750;52.134;5.424;2022-12-08T06:36:44;100986.94;;;6.33;78.98
72086;BME280;64750;52.134;5.424;2022-12-08T06:39:11;100990.31;;;6.35;79.09
72086;BME280;64750;52.134;5.424;2022-12-08T06:41:37;100993.88;;;6.33;79.00
72086;BME280;64750;52.134;5.424;2022-12-08T06:44:24;100993.03;;;6.32;79.04
72086;BME280;64750;52.134;5.424;2022-12-08T06:46:51;101002.53;;;6.35;78.92
72086;BME280;64750;52.134;5.424;2022-12-08T06:49:17;100999.84;;;6.36;78.82
72086;BME280;64750;52.134;5.424;2022-12-08T06:51:44;100998.88;;;6.39;78.94
72086;BME280;64750;52.134;5.424;2022-12-08T06:54:10;100992.91;;;6.35;78.71
72086;BME280;64750;52.134;5.424;2022-12-08T06:56:36;100991.09;;;6.37;78.93
72086;BME280;64750;52.134;5.424;2022-12-08T06:59:03;100994.38;;;6.43;79.08
72086;BME280;64750;52.134;5.424;2022-12-08T07:01:29;100993.34;;;6.47;78.79
72086;BME280;64750;52.134;5.424;2022-12-08T07:03:56;100995.09;;;6.46;78.77
72086;BME280;64750;52.134;5.424;2022-12-08T07:06:23;100991.56;;;6.47;78.93
72086;BME280;64750;52.134;5.424;2022-12-08T07:08:50;100992.28;;;6.51;79.20
72086;BME280;64750;52.134;5.424;2022-12-08T07:11:17;100992.22;;;6.52;78.72
72086;BME280;64750;52.134;5.424;2022-12-08T07:13:47;100991.31;;;6.53;78.86
72086;BME280;64750;52.134;5.424;2022-12-08T07:16:14;100996.53;;;6.53;78.79
72086;BME280;64750;52.134;5.424;2022-12-08T07:18:41;100987.78;;;6.54;78.79
72086;BME280;64750;52.134;5.424;2022-12-08T07:21:12;100989.38;;;6.59;78.75
72086;BME280;64750;52.134;5.424;2022-12-08T07:23:49;101000.53;;;6.62;78.93
72086;BME280;64750;52.134;5.424;2022-12-08T07:26:23;100986.66;;;6.62;78.80
72086;BME280;64750;52.134;5.424;2022-12-08T07:28:49;100996.19;;;6.63;79.02
72086;BME280;64750;52.134;5.424;2022-12-08T07:31:20;100986.50;;;6.65;78.78
72086;BME280;64750;52.134;5.424;2022-12-08T07:33:48;100996.03;;;6.66;78.83
72086;BME280;64750;52.134;5.424;2022-12-08T07:36:16;100990.69;;;6.69;78.57
72086;BME280;64750;52.134;5.424;2022-12-08T07:38:42;100990.69;;;6.69;78.68
72086;BME280;64750;52.134;5.424;2022-12-08T07:41:17;100996.84;;;6.68;78.62
72086;BME280;64750;52.134;5.424;2022-12-08T07:43:44;100997.53;;;6.71;78.69
72086;BME280;64750;52.134;5.424;2022-12-08T07:46:12;100990.44;;;6.75;78.10
72086;BME280;64750;52.134;5.424;2022-12-08T07:48:39;100993.94;;;6.74;77.63
72086;BME280;64750;52.134;5.424;2022-12-08T07:51:06;100994.09;;;6.71;77.33
72086;BME280;64750;52.134;5.424;2022-12-08T07:53:37;100997.69;;;6.68;76.63
72086;BME280;64750;52.134;5.424;2022-12-08T07:56:09;100993.44;;;6.66;76.54
72086;BME280;64750;52.134;5.424;2022-12-08T07:58:35;100990.09;;;6.62;76.39
72086;BME280;64750;52.134;5.424;2022-12-08T08:01:20;100995.38;;;6.61;76.06
72086;BME280;64750;52.134;5.424;2022-12-08T08:03:47;100992.88;;;6.57;75.95
72086;BME280;64750;52.134;5.424;2022-12-08T08:06:14;100996.47;;;6.55;75.73
72086;BME280;64750;52.134;5.424;2022-12-08T08:08:41;100996.53;;;6.53;75.91
72086;BME280;64750;52.134;5.424;2022-12-08T08:11:08;100992.38;;;6.49;75.60
72086;BME280;64750;52.134;5.424;2022-12-08T08:13:45;100990.72;;;6.47;75.64
72086;BME280;64750;52.134;5.424;2022-12-08T08:16:12;100985.63;;;6.44;75.52
72086;BME280;64750;52.134;5.424;2022-12-08T08:18:40;100994.38;;;6.43;75.51
72086;BME280;64750;52.134;5.424;2022-12-08T08:21:09;100995.34;;;6.40;75.31
72086;BME280;64750;52.134;5.424;2022-12-08T08:24:04;101005.91;;;6.37;75.57
72086;BME280;64750;52.134;5.424;2022-12-08T08:26:30;101002.59;;;6.33;75.31
72086;BME280;64750;52.134;5.424;2022-12-08T08:28:57;101008.78;;;6.31;75.33
72086;BME280;64750;52.134;5.424;2022-12-08T08:31:34;101009.75;;;6.28;75.45
72086;BME280;64750;52.134;5.424;2022-12-08T08:34:01;101011.56;;;6.26;75.33
72086;BME280;64750;52.134;5.424;2022-12-08T08:36:32;101014.31;;;6.23;75.56
72086;BME280;64750;52.134;5.424;2022-12-08T08:38:58;101011.78;;;6.20;75.44
72086;BME280;64750;52.134;5.424;2022-12-08T08:41:25;101017.06;;;6.18;75.30
72086;BME280;64750;52.134;5.424;2022-12-08T08:43:55;101018.13;;;6.14;75.43
72086;BME280;64750;52.134;5.424;2022-12-08T08:46:22;101018.16;;;6.13;75.49
72086;BME280;64750;52.134;5.424;2022-12-08T08:48:48;101015.59;;;6.11;75.31
72086;BME280;64750;52.134;5.424;2022-12-08T08:51:15;101020.06;;;6.09;75.45
72086;BME280;64750;52.134;5.424;2022-12-08T08:53:42;101020.09;;;6.07;75.74
72086;BME280;64750;52.134;5.424;2022-12-08T08:56:16;101020.16;;;6.06;75.45
72086;BME280;64750;52.134;5.424;2022-12-08T08:58:47;101019.38;;;6.04;75.42
72086;BME280;64750;52.134;5.424;2022-12-08T09:01:26;101020.28;;;6.03;75.54
72086;BME280;64750;52.134;5.424;2022-12-08T09:03:54;101011.66;;;6.01;75.56
72086;BME280;64750;52.134;5.424;2022-12-08T09:06:23;101007.31;;;6.01;75.54
72086;BME280;64750;52.134;5.424;2022-12-08T09:08:50;101007.34;;;6.00;75.57
72086;BME280;64750;52.134;5.424;2022-12-08T09:11:17;101009.13;;;5.98;75.96
72086;BME280;64750;52.134;5.424;2022-12-08T09:13:47;101001.31;;;5.98;75.76
72086;BME280;64750;52.134;5.424;2022-12-08T09:16:15;101007.50;;;5.95;76.07
72086;BME280;64750;52.134;5.424;2022-12-08T09:18:42;101006.59;;;5.96;76.14
72086;BME280;64750;52.134;5.424;2022-12-08T09:21:13;101005.72;;;5.96;76.37
72086;BME280;64750;52.134;5.424;2022-12-08T09:23:45;101015.25;;;5.97;76.31
72086;BME280;64750;52.134;5.424;2022-12-08T09:26:11;101011.81;;;5.96;76.45
72086;BME280;64750;52.134;5.424;2022-12-08T09:28:38;101009.22;;;5.96;76.61
72086;BME280;64750;52.134;5.424;2022-12-08T09:31:04;101012.66;;;5.97;76.77
72086;BME280;64750;52.134;5.424;2022-12-08T09:33:31;101004.81;;;5.97;76.77
72086;BME280;64750;52.134;5.424;2022-12-08T09:36:02;101013.50;;;5.99;76.91
72086;BME280;64750;52.134;5.424;2022-12-08T09:38:33;101009.09;;;5.99;76.73
72086;BME280;64750;52.134;5.424;2022-12-08T09:41:07;101005.66;;;5.99;77.04
72086;BME280;64750;52.134;5.424;2022-12-08T09:46:26;101012.47;;;6.03;76.91
72086;BME280;64750;52.134;5.424;2022-12-08T09:48:56;101021.31;;;5.99;77.02
72086;BME280;64750;52.134;5.424;2022-12-08T09:51:25;101018.78;;;5.96;76.84
72086;BME280;64750;52.134;5.424;2022-12-08T09:54:31;101017.19;;;5.91;77.16
72086;BME280;64750;52.134;5.424;2022-12-08T09:57:04;101018.00;;;5.94;77.31
72086;BME280;64750;52.134;5.424;2022-12-08T09:59:33;101021.31;;;5.99;77.17
72086;BME280;64750;52.134;5.424;2022-12-08T10:02:02;101019.47;;;6.01;77.36
72086;BME280;64750;52.134;5.424;2022-12-08T10:04:37;101013.41;;;6.00;77.33
72086;BME280;64750;52.134;5.424;2022-12-08T10:07:23;101011.59;;;6.02;77.20
72086;BME280;64750;52.134;5.424;2022-12-08T10:10:04;101011.72;;;5.99;77.13
72086;BME280;64750;52.134;5.424;2022-12-08T10:12:45;101018.72;;;5.99;77.41
72086;BME280;64750;52.134;5.424;2022-12-08T10:15:28;101018.78;;;5.96;77.04
72086;BME280;64750;52.134;5.424;2022-12-08T10:18:01;101013.63;;;5.94;77.43
72086;BME280;64750;52.134;5.424;2022-12-08T10:24:01;101003.81;;;6.01;77.20
72086;BME280;64750;52.134;5.424;2022-12-08T10:26:28;101000.38;;;6.00;77.51
72086;BME280;64750;52.134;5.424;2022-12-08T10:29:03;101002.03;;;6.03;77.20
72086;BME280;64750;52.134;5.424;2022-12-08T10:31:34;101012.47;;;6.03;77.31
72086;BME280;64750;52.134;5.424;2022-12-08T10:34:15;101003.88;;;5.99;77.54
72086;BME280;64750;52.134;5.424;2022-12-08T10:36:56;100996.88;;;6.01;77.38
72086;BME280;64750;52.134;5.424;2022-12-08T10:39:32;101006.53;;;5.98;77.21
72086;BME280;64750;52.134;5.424;2022-12-08T10:42:17;100990.22;;;5.93;77.80
72086;BME280;64750;52.134;5.424;2022-12-08T10:47:25;100991.91;;;5.94;77.97
72086;BME280;64750;52.134;5.424;2022-12-08T10:52:40;100993.66;;;5.93;78.27
72086;BME280;64750;52.134;5.424;2022-12-08T10:55:18;100983.16;;;5.95;78.27
72086;BME280;64750;52.134;5.424;2022-12-08T10:57:49;100984.78;;;5.97;78.19
72086;BME280;64750;52.134;5.424;2022-12-08T11:00:24;100978.63;;;6.00;78.08
72086;BME280;64750;52.134;5.424;2022-12-08T11:02:56;100980.44;;;5.98;78.38
72086;BME280;64750;52.134;5.424;2022-12-08T11:05:33;100988.16;;;6.01;78.42
72086;BME280;64750;52.134;5.424;2022-12-08T11:08:00;100989.06;;;6.00;78.19
72086;BME280;64750;52.134;5.424;2022-12-08T11:10:37;100990.00;;;5.99;77.76
72086;BME280;64750;52.134;5.424;2022-12-08T11:13:24;100993.50;;;5.98;78.02
72086;BME280;64750;52.134;5.424;2022-12-08T11:15:56;100989.16;;;5.97;78.40
72086;BME280;64750;52.134;5.424;2022-12-08T11:18:38;100984.66;;;6.02;78.62
72086;BME280;64750;52.134;5.424;2022-12-08T11:21:12;100983.63;;;6.06;78.58
72086;BME280;64750;52.134;5.424;2022-12-08T11:23:41;100983.53;;;6.09;78.82
72086;BME280;64750;52.134;5.424;2022-12-08T11:26:20;100982.56;;;6.12;78.09
72086;BME280;64750;52.134;5.424;2022-12-08T11:28:55;100977.38;;;6.10;78.58
72086;BME280;64750;52.134;5.424;2022-12-08T11:31:31;100971.25;;;6.11;78.35
72086;BME280;64750;52.134;5.424;2022-12-08T11:34:00;100961.59;;;6.13;78.64
72086;BME280;64750;52.134;5.424;2022-12-08T11:36:32;100956.31;;;6.15;78.79
72086;BME280;64750;52.134;5.424;2022-12-08T11:39:02;100946.53;;;6.20;78.78
72086;BME280;64750;52.134;5.424;2022-12-08T11:41:35;100940.25;;;6.26;78.82
72086;BME280;64750;52.134;5.424;2022-12-08T11:46:57;100935.88;;;6.26;78.46
72086;BME280;64750;52.134;5.424;2022-12-08T11:49:35;100930.56;;;6.28;78.20
72086;BME280;64750;52.134;5.424;2022-12-08T11:52:08;100927.06;;;6.29;78.23
72086;BME280;64750;52.134;5.424;2022-12-08T11:54:49;100926.09;;;6.31;78.26
72086;BME280;64750;52.134;5.424;2022-12-08T11:57:20;100922.56;;;6.32;78.15
72086;BME280;64750;52.134;5.424;2022-12-08T11:59:50;100923.34;;;6.34;78.27
72086;BME280;64750;52.134;5.424;2022-12-08T12:02:25;100915.47;;;6.36;78.20
72086;BME280;64750;52.134;5.424;2022-12-08T12:10:36;100914.53;;;6.37;78.65
72086;BME280;64750;52.134;5.424;2022-12-08T12:13:22;100922.34;;;6.37;78.34
72086;BME280;64750;52.134;5.424;2022-12-08T12:16:19;100912.72;;;6.39;78.41
72086;BME280;64750;52.134;5.424;2022-12-08T12:18:56;100913.38;;;6.44;78.40
72086;BME280;64750;52.134;5.424;2022-12-08T12:29:28;100903.66;;;6.48;78.51
72086;BME280;64750;52.134;5.424;2022-12-08T12:32:01;100908.72;;;6.51;78.48
72086;BME280;64750;52.134;5.424;2022-12-08T12:34:34;100906.91;;;6.53;78.57
72086;BME280;64750;52.134;5.424;2022-12-08T12:37:07;100905.22;;;6.52;78.25
72086;BME280;64750;52.134;5.424;2022-12-08T12:39:48;100907.69;;;6.55;78.53
72086;BME280;64750;52.134;5.424;2022-12-08T12:53:05;100894.50;;;6.58;78.53
72086;BME280;64750;52.134;5.424;2022-12-08T12:56:03;100891.00;;;6.59;78.45
72086;BME280;64750;52.134;5.424;2022-12-08T13:03:47;100889.22;;;6.60;78.50
72086;BME280;64750;52.134;5.424;2022-12-08T13:06:36;100883.09;;;6.61;78.54
72086;BME280;64750;52.134;5.424;2022-12-08T13:09:04;100893.59;;;6.59;78.59
72086;BME280;64750;52.134;5.424;2022-12-08T13:11:49;100891.84;;;6.60;78.58
72086;BME280;64750;52.134;5.424;2022-12-08T13:14:31;100881.38;;;6.60;78.48
72086;BME280;64750;52.134;5.424;2022-12-08T13:17:00;100889.16;;;6.61;78.56
72086;BME280;64750;52.134;5.424;2022-12-08T13:19:31;100889.94;;;6.63;78.44
72086;BME280;64750;52.134;5.424;2022-12-08T13:22:02;100887.47;;;6.60;78.49
72086;BME280;64750;52.134;5.424;2022-12-08T13:24:33;100883.09;;;6.61;78.69
72086;BME280;64750;52.134;5.424;2022-12-08T13:29:33;100882.94;;;6.64;78.52
72086;BME280;64750;52.134;5.424;2022-12-08T13:32:01;100885.56;;;6.64;78.67
72086;BME280;64750;52.134;5.424;2022-12-08T13:34:48;100877.72;;;6.64;78.50
72086;BME280;64750;52.134;5.424;2022-12-08T13:37:40;100874.19;;;6.65;78.55
72086;BME280;64750;52.134;5.424;2022-12-08T13:40:24;100868.00;;;6.67;78.54
72086;BME280;64750;52.134;5.424;2022-12-08T13:46:21;100872.25;;;6.70;78.54
72086;BME280;64750;52.134;5.424;2022-12-08T13:49:16;100868.72;;;6.71;78.59
72086;BME280;64750;52.134;5.424;2022-12-08T13:52:04;100872.97;;;6.73;78.38
72086;BME280;64750;52.134;5.424;2022-12-08T13:55:03;100870.34;;;6.73;78.34
72086;BME280;64750;52.134;5.424;2022-12-08T13:57:54;100872.13;;;6.73;78.47
72086;BME280;64750;52.134;5.424;2022-12-08T14:00:23;100868.53;;;6.76;78.22
72086;BME280;64750;52.134;5.424;2022-12-08T14:02:56;100874.59;;;6.76;78.57
72086;BME280;64750;52.134;5.424;2022-12-08T14:05:25;100873.78;;;6.74;78.52
72086;BME280;64750;52.134;5.424;2022-12-08T14:08:33;100885.03;;;6.76;78.47
72086;BME280;64750;52.134;5.424;2022-12-08T14:11:27;100880.66;;;6.77;78.34
72086;BME280;64750;52.134;5.424;2022-12-08T14:14:06;100880.59;;;6.78;78.36
72086;BME280;64750;52.134;5.424;2022-12-08T14:16:39;100880.59;;;6.78;78.71
72086;BME280;64750;52.134;5.424;2022-12-08T14:19:36;100883.22;;;6.78;78.43
72086;BME280;64750;52.134;5.424;2022-12-08T14:22:11;100874.50;;;6.78;78.38
72086;BME280;64750;52.134;5.424;2022-12-08T14:24:39;100876.22;;;6.79;78.27
72086;BME280;64750;52.134;5.424;2022-12-08T14:27:16;100880.59;;;6.78;78.34
72086;BME280;64750;52.134;5.424;2022-12-08T14:29:51;100879.66;;;6.79;78.60
72086;BME280;64750;52.134;5.424;2022-12-08T14:35:11;100884.88;;;6.79;78.48